createdAt,value
2016-05-14T11:10:27.946Z,15.64
2016-05-14T11:11:28.138Z,15.56
2016-05-14T11:12:27.921Z,15.64
2016-05-14T11:13:27.908Z,15.36
2016-05-14T11:14:27.895Z,15.26
2016-05-14T11:15:27.898Z,15.09
2016-05-14T11:16:27.729Z,14.78
2016-05-14T11:17:27.873Z,14.54
2016-05-14T11:18:27.875Z,14.29
2016-05-14T11:19:27.909Z,14.19
2016-05-14T11:20:27.849Z,13.91
2016-05-14T11:21:27.836Z,13.77
2016-05-14T11:22:27.839Z,13.76
2016-05-14T11:23:27.825Z,13.74
2016-05-14T11:24:27.812Z,13.63
2016-05-14T11:25:27.815Z,13.76
2016-05-14T11:26:27.803Z,13.58
2016-05-14T11:27:27.790Z,13.36
2016-05-14T11:28:27.777Z,13.33
2016-05-14T11:29:27.779Z,13.56
2016-05-14T11:30:27.766Z,13.67
2016-05-14T11:31:27.753Z,13.87
2016-05-14T11:32:27.741Z,14.49
2016-05-14T11:33:27.758Z,15.27
2016-05-14T11:34:27.589Z,15.75
2016-05-14T11:35:27.717Z,15.79
2016-05-14T11:36:27.720Z,15.75
2016-05-14T11:37:27.738Z,15.49
2016-05-14T11:38:27.710Z,15.35
2016-05-14T11:39:27.713Z,15.27
2016-05-14T11:40:27.684Z,15.01
2016-05-14T11:41:27.530Z,14.94
2016-05-14T11:42:27.673Z,14.56
2016-05-14T11:43:27.520Z,14.49
2016-05-14T11:44:27.648Z,14.49
2016-05-14T11:45:27.651Z,14.42
2016-05-14T11:46:27.653Z,14.44
2016-05-14T11:47:27.484Z,14.24
2016-05-14T11:48:27.549Z,14.04
2016-05-14T11:49:27.615Z,14.06
2016-05-14T11:50:27.601Z,13.89
2016-05-14T11:51:27.620Z,14.04
2016-05-14T11:52:27.607Z,14.19
2016-05-14T11:53:27.438Z,14.24
2016-05-14T11:54:27.425Z,14.31
2016-05-14T11:55:27.615Z,14.37
2016-05-14T11:56:27.570Z,14.49
2016-05-14T11:57:27.558Z,14.86
2016-05-14T11:58:27.545Z,15.43
2016-05-14T11:59:27.391Z,16.04
2016-05-14T12:00:27.550Z,16.71
2016-05-14T12:01:27.521Z,17.1
2016-05-14T12:02:27.539Z,17.22
2016-05-14T12:03:27.746Z,17.51
2016-05-14T12:04:27.514Z,17.87
2016-05-14T12:05:27.516Z,18.07
2016-05-14T12:06:27.504Z,18.03
2016-05-14T12:07:27.522Z,17.29
2016-05-14T12:08:27.337Z,17.04
2016-05-14T12:09:27.497Z,16.96
2016-05-14T12:10:27.326Z,16.68
2016-05-14T12:11:27.501Z,16.27
2016-05-14T12:12:27.348Z,16.15
2016-05-14T12:13:27.491Z,15.99
2016-05-14T12:14:27.479Z,15.88
2016-05-14T12:15:27.482Z,15.59
2016-05-14T12:16:27.453Z,15.59
2016-05-14T12:17:27.487Z,15.33
2016-05-14T12:18:27.490Z,15.09
2016-05-14T12:19:27.476Z,14.95
2016-05-14T12:20:27.463Z,14.75
2016-05-14T12:21:27.466Z,14.46
2016-05-14T12:22:27.422Z,14.28
2016-05-14T12:23:27.284Z,13.89
2016-05-14T12:24:27.271Z,13.89
2016-05-14T12:25:27.289Z,13.98
2016-05-14T12:26:27.417Z,14.04
2016-05-14T12:27:27.404Z,13.94
2016-05-14T12:28:27.406Z,13.77
2016-05-14T12:29:27.394Z,13.69
2016-05-14T12:30:27.365Z,13.74
2016-05-14T12:31:27.383Z,13.84
2016-05-14T12:32:27.355Z,14.01
2016-05-14T12:33:27.482Z,14.14
2016-05-14T12:34:27.360Z,14.65
2016-05-14T12:35:27.332Z,15.52
2016-05-14T12:36:27.350Z,15.63
2016-05-14T12:37:27.321Z,16.15
2016-05-14T12:38:27.152Z,16.74
2016-05-14T12:39:27.343Z,16.83
2016-05-14T12:40:27.314Z,17.13
2016-05-14T12:41:27.302Z,17.62
2016-05-14T12:42:27.147Z,17.97
2016-05-14T12:43:27.307Z,17.85
2016-05-14T12:44:27.482Z,17.81
2016-05-14T12:45:27.280Z,18.17
2016-05-14T12:46:27.268Z,18.61
2016-05-14T12:47:27.129Z,18.67
2016-05-14T12:48:27.913Z,18.84
2016-05-14T12:49:27.260Z,19.02
2016-05-14T12:50:27.262Z,19.23
2016-05-14T12:51:27.297Z,19.11
2016-05-14T12:52:27.268Z,18.79
2016-05-14T12:53:27.473Z,19.01
2016-05-14T12:54:26.945Z,19.4
2016-05-14T12:55:27.276Z,19.38
2016-05-14T12:56:27.248Z,18.9
2016-05-14T12:57:27.281Z,18.82
2016-05-14T12:58:27.253Z,18.83
2016-05-14T12:59:27.256Z,18.57
2016-05-14T13:00:27.102Z,18.18
2016-05-14T13:01:27.245Z,17.64
2016-05-14T13:02:27.248Z,17.41
2016-05-14T13:03:27.094Z,16.81
2016-05-14T13:04:27.097Z,16.81
2016-05-14T13:05:27.084Z,16.53
2016-05-14T13:06:27.244Z,16.11
2016-05-14T13:07:27.246Z,15.93
2016-05-14T13:08:27.233Z,15.92
2016-05-14T13:09:27.220Z,15.56
2016-05-14T13:10:27.129Z,15.39
2016-05-14T13:11:27.225Z,15.35
2016-05-14T13:12:27.228Z,15.05
2016-05-14T13:13:27.215Z,14.94
2016-05-14T13:14:27.218Z,14.78
2016-05-14T13:15:27.205Z,14.49
2016-05-14T13:16:27.208Z,14.31
2016-05-14T13:17:27.195Z,14.29
2016-05-14T13:18:27.213Z,14.12
2016-05-14T13:19:27.185Z,13.94
2016-05-14T13:20:27.031Z,13.87
2016-05-14T13:21:27.174Z,13.76
2016-05-14T13:22:27.380Z,13.74
2016-05-14T13:23:27.164Z,13.62
2016-05-14T13:24:27.151Z,13.55
2016-05-14T13:25:26.982Z,13.29
2016-05-14T13:26:26.982Z,13.29
2016-05-14T13:27:27.179Z,13.33
2016-05-14T13:28:27.205Z,13.32
2016-05-14T13:29:27.231Z,13.3
2016-05-14T13:30:27.273Z,13.33
2016-05-14T13:31:27.290Z,13.3
2016-05-14T13:32:27.292Z,13.56
2016-05-14T13:33:27.715Z,13.79
2016-05-14T13:34:27.153Z,14.35
2016-05-14T13:35:27.327Z,14.99
2016-05-14T13:36:27.325Z,15.52
2016-05-14T13:37:27.317Z,16.03
2016-05-14T13:38:27.324Z,16.38
2016-05-14T13:39:27.301Z,16.45
2016-05-14T13:40:27.309Z,16.49
2016-05-14T13:41:27.315Z,16.48
2016-05-14T13:42:27.305Z,16.62
2016-05-14T13:43:27.294Z,16.5
2016-05-14T13:44:27.314Z,16.81
2016-05-14T13:45:27.147Z,16.77
2016-05-14T13:46:27.151Z,16.45
2016-05-14T13:47:27.279Z,16.03
2016-05-14T13:48:27.298Z,15.72
2016-05-14T13:49:27.270Z,15.54
2016-05-14T13:50:27.273Z,15.3
2016-05-14T13:51:27.277Z,15.2
2016-05-14T13:52:27.280Z,15.35
2016-05-14T13:53:27.283Z,15.66
2016-05-14T13:54:27.254Z,15.76
2016-05-14T13:55:27.085Z,16.18
2016-05-14T13:56:27.244Z,16.34
2016-05-14T13:57:26.934Z,16
2016-05-14T13:58:27.093Z,16.34
2016-05-14T13:59:27.236Z,16.38
2016-05-14T14:00:27.083Z,16.63
2016-05-14T14:01:27.226Z,16.77
2016-05-14T14:02:27.073Z,17.06
2016-05-14T14:03:27.543Z,17.2
2016-05-14T14:04:27.218Z,17.25
2016-05-14T14:05:27.220Z,17.48
2016-05-14T14:06:27.224Z,17.17
2016-05-14T14:07:27.212Z,17.47
2016-05-14T14:08:27.214Z,17.38
2016-05-14T14:09:27.184Z,17.48
2016-05-14T14:10:27.032Z,17
2016-05-14T14:11:27.190Z,16.89
2016-05-14T14:12:27.037Z,17.04
2016-05-14T14:13:26.883Z,16.99
2016-05-14T14:14:27.183Z,16.86
2016-05-14T14:15:27.185Z,16.59
2016-05-14T14:16:27.033Z,16.3
2016-05-14T14:17:27.175Z,15.97
2016-05-14T14:18:27.178Z,15.42
2016-05-14T14:19:27.180Z,15.38
2016-05-14T14:20:27.168Z,15.39
2016-05-14T14:21:27.171Z,15.09
2016-05-14T14:22:27.173Z,14.99
2016-05-14T14:23:27.161Z,14.86
2016-05-14T14:24:27.147Z,14.94
2016-05-14T14:25:26.994Z,15.01
2016-05-14T14:26:27.137Z,15.11
2016-05-14T14:27:27.124Z,15.03
2016-05-14T14:28:27.127Z,15.05
2016-05-14T14:29:27.113Z,14.74
2016-05-14T14:30:27.116Z,14.52
2016-05-14T14:31:27.118Z,14.47
2016-05-14T14:32:26.935Z,14.42
2016-05-14T14:33:27.312Z,14.35
2016-05-14T14:34:27.440Z,14.1
2016-05-14T14:35:27.083Z,13.84
2016-05-14T14:36:26.915Z,13.83
2016-05-14T14:37:27.057Z,13.54
2016-05-14T14:38:27.045Z,13.36
2016-05-14T14:39:27.062Z,13.18
2016-05-14T14:40:27.050Z,13.24
2016-05-14T14:41:27.037Z,12.92
2016-05-14T14:42:27.024Z,12.85
2016-05-14T14:43:27.042Z,12.52
2016-05-14T14:44:26.997Z,12.29
2016-05-14T14:45:27.188Z,12.04
2016-05-14T14:46:26.988Z,11.62
2016-05-14T14:47:26.974Z,11.39
2016-05-14T14:48:26.961Z,11.07
2016-05-14T14:49:26.793Z,10.94
2016-05-14T14:50:26.936Z,10.91
2016-05-14T14:51:26.922Z,10.88
2016-05-14T14:52:26.910Z,10.81
2016-05-14T14:53:26.897Z,10.78
2016-05-14T14:54:26.885Z,10.86
2016-05-14T14:55:26.887Z,10.95
2016-05-14T14:56:26.702Z,11.09
2016-05-14T14:57:26.860Z,11.16
2016-05-14T14:58:26.849Z,11.06
2016-05-14T14:59:26.835Z,11.29
2016-05-14T15:00:26.666Z,11.34
2016-05-14T15:01:26.809Z,11.49
2016-05-14T15:02:26.796Z,11.54
2016-05-14T15:03:27.533Z,11.61
2016-05-14T15:04:27.129Z,11.68
2016-05-14T15:05:26.757Z,11.71
2016-05-14T15:06:26.745Z,11.71
2016-05-14T15:07:26.731Z,11.8
2016-05-14T15:08:26.734Z,11.89
2016-05-14T15:09:26.721Z,12.24
2016-05-14T15:10:26.568Z,12.37
2016-05-14T15:11:26.726Z,12.48
2016-05-14T15:12:26.683Z,12.42
2016-05-14T15:13:26.514Z,12.54
2016-05-14T15:14:26.657Z,12.26
2016-05-14T15:15:26.675Z,12.46
2016-05-14T15:16:26.631Z,12.79
2016-05-14T15:17:26.633Z,13.12
2016-05-14T15:18:26.480Z,13.18
2016-05-14T15:19:26.608Z,13.43
2016-05-14T15:20:26.438Z,13.69
2016-05-14T15:21:26.582Z,13.79
2016-05-14T15:22:26.569Z,13.89
2016-05-14T15:23:26.555Z,13.89
2016-05-14T15:24:26.559Z,13.27
2016-05-14T15:25:27.014Z,13.12
2016-05-14T15:26:26.549Z,12.84
2016-05-14T15:27:26.535Z,12.77
2016-05-14T15:28:26.522Z,12.74
2016-05-14T15:29:26.572Z,12.63
2016-05-14T15:30:26.497Z,12.52
2016-05-14T15:31:26.499Z,12.46
2016-05-14T15:32:26.487Z,12.21
2016-05-14T15:33:26.693Z,12.2
2016-05-14T15:34:26.476Z,12.26
2016-05-14T15:35:26.462Z,12.39
2016-05-14T15:36:26.465Z,12.26
2016-05-14T15:37:26.453Z,12.3
2016-05-14T15:38:26.284Z,12.33
2016-05-14T15:39:26.427Z,12.2
2016-05-14T15:40:26.414Z,12.24
2016-05-14T15:41:26.245Z,12.2
2016-05-14T15:42:26.248Z,11.99
2016-05-14T15:43:26.234Z,12.02
2016-05-14T15:44:26.378Z,11.93
2016-05-14T15:45:26.209Z,12.02
2016-05-14T15:46:26.353Z,11.93
2016-05-14T15:47:26.355Z,11.87
2016-05-14T15:48:26.623Z,11.75
2016-05-14T15:49:26.016Z,11.77
2016-05-14T15:50:26.503Z,11.7
2016-05-14T15:51:26.303Z,11.83
2016-05-14T15:52:26.274Z,11.82
2016-05-14T15:53:26.121Z,11.82
2016-05-14T15:54:26.280Z,11.67
2016-05-14T15:55:26.111Z,11.5
2016-05-14T15:56:25.926Z,11.67
2016-05-14T15:57:26.569Z,11.61
2016-05-14T15:58:26.212Z,11.67
2016-05-14T15:59:26.355Z,11.56
2016-05-14T16:00:26.046Z,11.62
2016-05-14T16:01:26.190Z,11.67
2016-05-14T16:02:26.160Z,11.85
2016-05-14T16:03:26.055Z,11.8
2016-05-14T16:04:26.151Z,11.85
2016-05-14T16:05:26.137Z,11.89
2016-05-14T16:06:26.124Z,11.89
2016-05-14T16:07:25.956Z,12.2
2016-05-14T16:08:26.114Z,12.46
2016-05-14T16:09:26.118Z,12.71
2016-05-14T16:10:25.917Z,12.84
2016-05-14T16:11:26.060Z,12.96
2016-05-14T16:12:26.062Z,13.03
2016-05-14T16:13:26.034Z,13.11
2016-05-14T16:14:26.037Z,13.4
2016-05-14T16:15:26.024Z,13.63
2016-05-14T16:16:26.012Z,13.65
2016-05-14T16:17:25.998Z,13.73
2016-05-14T16:18:26.063Z,13.65
2016-05-14T16:19:26.003Z,13.54
2016-05-14T16:20:25.959Z,13.63
2016-05-14T16:21:25.947Z,13.52
2016-05-14T16:22:25.950Z,13.65
2016-05-14T16:23:25.764Z,13.81
2016-05-14T16:24:25.797Z,13.73
2016-05-14T16:25:25.769Z,13.61
2016-05-14T16:26:25.757Z,13.69
2016-05-14T16:27:25.916Z,13.74
2016-05-14T16:28:25.902Z,13.88
2016-05-14T16:29:25.718Z,13.84
2016-05-14T16:30:25.720Z,13.94
2016-05-14T16:31:25.911Z,13.91
2016-05-14T16:32:25.882Z,13.94
2016-05-14T16:33:25.697Z,14.01
2016-05-14T16:34:26.778Z,14.16
2016-05-14T16:35:25.671Z,14.16
2016-05-14T16:36:25.830Z,14.13
2016-05-14T16:37:25.818Z,14.04
2016-05-14T16:38:25.649Z,13.81
2016-05-14T16:39:25.792Z,13.58
2016-05-14T16:40:25.794Z,13.61
2016-05-14T16:41:25.782Z,13.77
2016-05-14T16:42:25.800Z,13.67
2016-05-14T16:43:28.724Z,13.77
2016-05-14T16:44:25.773Z,13.71
2016-05-14T16:45:31.573Z,13.71
2016-05-14T16:46:25.951Z,13.71
2016-05-14T16:47:25.734Z,13.47
2016-05-14T16:48:33.191Z,13.27
2016-05-14T16:49:25.756Z,13.12
2016-05-14T16:50:39.525Z,13.03
2016-05-14T16:51:25.699Z,12.87
2016-05-14T16:52:25.733Z,12.85
2016-05-14T16:53:32.798Z,12.79
2016-05-14T16:54:25.535Z,12.63
2016-05-14T16:55:25.538Z,12.66
2016-05-14T16:56:25.697Z,12.77
2016-05-14T16:57:25.511Z,12.84
2016-05-14T16:58:25.655Z,12.75
2016-05-14T16:59:25.548Z,12.75
2016-05-14T17:00:25.661Z,12.81
2016-05-14T17:01:25.492Z,12.89
2016-05-14T17:02:25.619Z,12.66
2016-05-14T17:03:25.621Z,12.64
2016-05-14T17:04:25.500Z,12.59
2016-05-14T17:05:25.612Z,12.63
2016-05-14T17:06:25.598Z,12.7
2016-05-14T17:07:25.585Z,12.7
2016-05-14T17:08:25.573Z,12.52
2016-05-14T17:09:25.560Z,12.51
2016-05-14T17:10:25.562Z,12.48
2016-05-14T17:11:25.549Z,12.37
2016-05-14T17:12:25.567Z,12.33
2016-05-14T17:13:25.540Z,12.42
2016-05-14T17:14:25.511Z,12.44
2016-05-14T17:15:25.498Z,12.42
2016-05-14T17:16:25.501Z,12.34
2016-05-14T17:17:25.503Z,12.26
2016-05-14T17:18:25.334Z,12.23
2016-05-14T17:19:25.556Z,11.89
2016-05-14T17:20:25.464Z,11.78
2016-05-14T17:21:25.451Z,11.82
2016-05-14T17:22:25.439Z,11.72
2016-05-14T17:23:25.425Z,11.68
2016-05-14T17:24:25.428Z,11.67
2016-05-14T17:25:25.416Z,11.75
2016-05-14T17:26:25.231Z,11.94
2016-05-14T17:27:25.389Z,12.01
2016-05-14T17:28:25.236Z,12.06
2016-05-14T17:29:25.363Z,12.12
2016-05-14T17:30:25.350Z,11.94
2016-05-14T17:31:25.338Z,11.96
2016-05-14T17:32:25.341Z,11.97
2016-05-14T17:33:25.905Z,12.09
2016-05-14T17:34:25.518Z,12.05
2016-05-14T17:35:25.286Z,12.09
2016-05-14T17:36:25.288Z,12.12
2016-05-14T17:37:25.276Z,12.06
2016-05-14T17:38:25.263Z,12.15
2016-05-14T17:39:25.250Z,12.12
2016-05-14T17:40:25.237Z,11.96
2016-05-14T17:41:25.224Z,11.94
2016-05-14T17:42:25.226Z,11.97
2016-05-14T17:43:25.198Z,11.93
2016-05-14T17:44:25.184Z,12.09
2016-05-14T17:45:25.173Z,11.93
2016-05-14T17:46:25.176Z,11.78
2016-05-14T17:47:25.162Z,11.82
2016-05-14T17:48:25.508Z,11.65
2016-05-14T17:49:25.136Z,11.56
2016-05-14T17:50:25.139Z,11.43
2016-05-14T17:51:25.126Z,11.34
2016-05-14T17:52:25.097Z,11.35
2016-05-14T17:53:25.084Z,11.24
2016-05-14T17:54:25.071Z,11.27
2016-05-14T17:55:25.074Z,11.21
2016-05-14T17:56:24.889Z,11.06
2016-05-14T17:57:25.033Z,11.1
2016-05-14T17:58:25.019Z,11.07
2016-05-14T17:59:24.850Z,11.06
2016-05-14T18:00:24.838Z,11.01
2016-05-14T18:01:24.683Z,10.92
2016-05-14T18:02:24.968Z,10.94
2016-05-14T18:03:25.361Z,10.96
2016-05-14T18:04:24.942Z,10.94
2016-05-14T18:05:24.774Z,11.03
2016-05-14T18:06:24.777Z,10.94
2016-05-14T18:07:24.904Z,10.86
2016-05-14T18:08:24.890Z,10.81
2016-05-14T18:09:24.721Z,10.81
2016-05-14T18:10:24.880Z,10.81
2016-05-14T18:11:24.867Z,10.77
2016-05-14T18:12:24.838Z,10.89
2016-05-14T18:13:24.810Z,10.89
2016-05-14T18:14:24.798Z,10.88
2016-05-14T18:15:24.643Z,10.86
2016-05-14T18:16:24.771Z,10.84
2016-05-14T18:17:24.790Z,10.94
2016-05-14T18:18:24.714Z,10.94
2016-05-14T18:19:24.951Z,10.84
2016-05-14T18:20:24.720Z,10.88
2016-05-14T18:21:24.706Z,10.91
2016-05-14T18:22:24.381Z,10.89
2016-05-14T18:23:24.681Z,10.89
2016-05-14T18:24:24.668Z,10.8
2016-05-14T18:25:24.655Z,10.78
2016-05-14T18:26:24.642Z,10.77
2016-05-14T18:27:24.645Z,10.78
2016-05-14T18:28:24.444Z,10.81
2016-05-14T18:29:24.431Z,10.8
2016-05-14T18:30:24.590Z,10.84
2016-05-14T18:31:24.593Z,10.91
2016-05-14T18:32:24.549Z,10.81
2016-05-14T18:33:24.411Z,10.91
2016-05-14T18:34:24.601Z,10.95
2016-05-14T18:35:24.510Z,10.81
2016-05-14T18:36:24.357Z,10.76
2016-05-14T18:37:24.484Z,10.74
2016-05-14T18:38:24.471Z,10.73
2016-05-14T18:39:24.458Z,10.65
2016-05-14T18:40:24.445Z,10.65
2016-05-14T18:41:24.433Z,10.7
2016-05-14T18:42:24.435Z,10.52
2016-05-14T18:43:24.407Z,10.53
2016-05-14T18:44:24.378Z,10.52
2016-05-14T18:45:24.568Z,10.51
2016-05-14T18:46:24.352Z,10.4
2016-05-14T18:47:24.339Z,10.3
2016-05-14T18:48:24.842Z,10.3
2016-05-14T18:49:24.344Z,10.33
2016-05-14T18:50:24.300Z,10.25
2016-05-14T18:51:24.131Z,10.22
2016-05-14T18:52:24.275Z,10.19
2016-05-14T18:53:24.262Z,10.03
2016-05-14T18:54:24.233Z,10.07
2016-05-14T18:55:24.079Z,10.12
2016-05-14T18:56:24.206Z,10.06
2016-05-14T18:57:24.195Z,10.06
2016-05-14T18:58:24.181Z,10.03
2016-05-14T18:59:24.027Z,10.04
2016-05-14T19:00:24.156Z,9.97
2016-05-14T19:01:24.142Z,9.97
2016-05-14T19:02:23.973Z,9.83
2016-05-14T19:03:25.147Z,9.75
2016-05-14T19:04:24.103Z,9.68
2016-05-14T19:05:24.091Z,9.7
2016-05-14T19:06:24.063Z,9.67
2016-05-14T19:07:23.893Z,9.6
2016-05-14T19:08:24.035Z,9.56
2016-05-14T19:09:23.866Z,9.63
2016-05-14T19:10:24.010Z,9.52
2016-05-14T19:11:23.841Z,9.58
2016-05-14T19:12:23.999Z,9.64
2016-05-14T19:13:23.957Z,9.56
2016-05-14T19:14:23.802Z,9.64
2016-05-14T19:15:23.946Z,9.58
2016-05-14T19:16:23.917Z,9.63
2016-05-14T19:17:23.904Z,9.6
2016-05-14T19:18:23.876Z,9.6
2016-05-14T19:19:23.566Z,9.71
2016-05-14T19:20:23.851Z,9.73
2016-05-14T19:21:23.836Z,9.71
2016-05-14T19:22:23.839Z,9.67
2016-05-14T19:23:23.670Z,9.61
2016-05-14T19:24:23.486Z,9.6
2016-05-14T19:25:23.628Z,9.63
2016-05-14T19:26:23.617Z,9.68
2016-05-14T19:27:23.603Z,9.58
2016-05-14T19:28:23.731Z,9.61
2016-05-14T19:29:23.561Z,9.64
2016-05-14T19:30:23.548Z,9.66
2016-05-14T19:31:23.536Z,9.75
2016-05-14T19:32:23.678Z,9.71
2016-05-14T19:33:23.353Z,9.71
2016-05-14T19:34:23.888Z,9.73
2016-05-14T19:35:23.625Z,9.7
2016-05-14T19:36:23.814Z,9.75
2016-05-14T19:37:23.301Z,9.73
2016-05-14T19:38:23.585Z,9.64
2016-05-14T19:39:23.557Z,9.68
2016-05-14T19:40:23.404Z,9.58
2016-05-14T19:41:23.375Z,9.56
2016-05-14T19:42:23.534Z,9.39
2016-05-14T19:43:23.505Z,9.48
2016-05-14T19:44:23.493Z,9.38
2016-05-14T19:45:23.464Z,9.39
2016-05-14T19:46:23.295Z,9.4
2016-05-14T19:47:23.454Z,9.35
2016-05-14T19:48:23.440Z,9.3
2016-05-14T19:49:23.818Z,9.3
2016-05-14T19:50:23.399Z,9.3
2016-05-14T19:51:23.402Z,9.28
2016-05-14T19:52:23.374Z,9.31
2016-05-14T19:53:23.376Z,9.28
2016-05-14T19:54:23.176Z,9.2
2016-05-14T19:55:23.319Z,9.15
2016-05-14T19:56:23.306Z,9.21
2016-05-14T19:57:23.293Z,9.1
2016-05-14T19:58:23.109Z,9.09
2016-05-14T19:59:23.267Z,9.13
2016-05-14T20:00:23.082Z,9.1
2016-05-14T20:01:23.225Z,8.88
2016-05-14T20:02:23.057Z,8.94
2016-05-14T20:03:23.075Z,8.97
2016-05-14T20:04:23.374Z,8.93
2016-05-14T20:05:23.159Z,8.91
2016-05-14T20:06:23.161Z,8.79
2016-05-14T20:07:22.991Z,8.84
2016-05-14T20:08:22.995Z,8.87
2016-05-14T20:09:23.122Z,8.73
2016-05-14T20:10:22.938Z,8.73
2016-05-14T20:11:23.096Z,8.72
2016-05-14T20:12:23.052Z,8.75
2016-05-14T20:13:23.039Z,8.62
2016-05-14T20:14:23.027Z,8.55
2016-05-14T20:15:23.013Z,8.55
2016-05-14T20:16:22.844Z,8.55
2016-05-14T20:17:23.004Z,8.5
2016-05-14T20:18:22.959Z,8.5
2016-05-14T20:19:23.180Z,8.42
2016-05-14T20:20:22.604Z,8.55
2016-05-14T20:21:22.905Z,8.5
2016-05-14T20:22:22.907Z,8.45
2016-05-14T20:23:22.878Z,8.39
2016-05-14T20:24:22.710Z,8.4
2016-05-14T20:25:22.837Z,8.35
2016-05-14T20:26:22.840Z,8.36
2016-05-14T20:27:22.811Z,8.29
2016-05-14T20:28:22.798Z,8.36
2016-05-14T20:29:22.770Z,8.33
2016-05-14T20:30:22.616Z,8.35
2016-05-14T20:31:22.588Z,8.32
2016-05-14T20:32:22.575Z,8.26
2016-05-14T20:33:23.031Z,8.25
2016-05-14T20:34:22.550Z,8.28
2016-05-14T20:35:22.692Z,8.35
2016-05-14T20:36:22.680Z,8.18
2016-05-14T20:37:22.650Z,8.18
2016-05-14T20:38:22.497Z,8.15
2016-05-14T20:39:22.609Z,8.14
2016-05-14T20:40:22.597Z,8.15
2016-05-14T20:41:22.583Z,8.12
2016-05-14T20:42:22.571Z,8.08
2016-05-14T20:43:22.386Z,8.14
2016-05-14T20:44:22.530Z,8.1
2016-05-14T20:45:22.719Z,8.14
2016-05-14T20:46:22.519Z,8.04
2016-05-14T20:47:22.490Z,8.1
2016-05-14T20:48:22.493Z,8.02
2016-05-14T20:49:22.668Z,7.99
2016-05-14T20:50:22.435Z,7.99
2016-05-14T20:51:22.423Z,7.96
2016-05-14T20:52:22.394Z,7.9
2016-05-14T20:53:22.382Z,7.96
2016-05-14T20:54:22.368Z,7.87
2016-05-14T20:55:22.371Z,7.89
2016-05-14T20:56:22.359Z,7.89
2016-05-14T20:57:22.173Z,7.79
2016-05-14T20:58:22.145Z,7.81
2016-05-14T20:59:22.288Z,7.84
2016-05-14T21:00:22.275Z,7.84
2016-05-14T21:01:22.262Z,7.87
2016-05-14T21:02:22.234Z,7.87
2016-05-14T21:03:22.658Z,7.82
2016-05-14T21:04:22.208Z,7.87
2016-05-14T21:05:22.178Z,7.79
2016-05-14T21:06:22.011Z,7.77
2016-05-14T21:07:22.153Z,7.71
2016-05-14T21:08:22.141Z,7.77
2016-05-14T21:09:22.111Z,7.78
2016-05-14T21:10:22.099Z,7.74
2016-05-14T21:11:21.774Z,7.79
2016-05-14T21:12:22.072Z,7.77
2016-05-14T21:13:22.045Z,7.71
2016-05-14T21:14:22.032Z,7.71
2016-05-14T21:15:22.019Z,7.67
2016-05-14T21:16:21.849Z,7.66
2016-05-14T21:17:21.993Z,7.81
2016-05-14T21:18:21.871Z,7.71
2016-05-14T21:19:21.654Z,7.78
2016-05-14T21:20:21.969Z,7.72
2016-05-14T21:21:21.910Z,7.52
2016-05-14T21:22:21.584Z,7.66
2016-05-14T21:23:21.899Z,7.63
2016-05-14T21:24:21.887Z,7.67
2016-05-14T21:25:21.702Z,7.67
2016-05-14T21:26:21.517Z,7.6
2016-05-14T21:27:21.817Z,7.62
2016-05-14T21:28:21.804Z,7.67
2016-05-14T21:29:21.634Z,7.56
2016-05-14T21:30:21.762Z,7.55
2016-05-14T21:31:21.734Z,7.58
2016-05-14T21:32:21.736Z,7.6
2016-05-14T21:33:21.739Z,7.62
2016-05-14T21:34:21.553Z,7.58
2016-05-14T21:35:21.681Z,7.55
2016-05-14T21:36:21.669Z,7.49
2016-05-14T21:37:21.640Z,7.52
2016-05-14T21:38:21.611Z,7.52
2016-05-14T21:39:21.599Z,7.49
2016-05-14T21:40:21.445Z,7.4
2016-05-14T21:41:21.572Z,7.34
2016-05-14T21:42:21.560Z,7.37
2016-05-14T21:43:21.546Z,7.34
2016-05-14T21:44:21.518Z,7.32
2016-05-14T21:45:21.506Z,7.29
2016-05-14T21:46:21.493Z,7.31
2016-05-14T21:47:21.464Z,7.32
2016-05-14T21:48:21.466Z,7.32
2016-05-14T21:49:21.485Z,7.32
2016-05-14T21:50:21.425Z,7.23
2016-05-14T21:51:21.396Z,7.31
2016-05-14T21:52:21.384Z,7.26
2016-05-14T21:53:21.370Z,7.24
2016-05-14T21:54:21.343Z,7.27
2016-05-14T21:55:21.345Z,7.16
2016-05-14T21:56:21.316Z,7.19
2016-05-14T21:57:21.366Z,7.09
2016-05-14T21:58:21.275Z,7.13
2016-05-14T21:59:21.262Z,7.12
2016-05-14T22:00:21.265Z,7.13
2016-05-14T22:01:21.079Z,7.12
2016-05-14T22:02:21.411Z,7.19
2016-05-14T22:03:21.194Z,7.2
2016-05-14T22:04:21.885Z,7.19
2016-05-14T22:05:21.184Z,7.12
2016-05-14T22:06:21.156Z,7.12
2016-05-14T22:07:21.128Z,7.12
2016-05-14T22:08:21.114Z,7.09
2016-05-14T22:09:21.086Z,7.12
2016-05-14T22:10:21.072Z,7.19
2016-05-14T22:11:21.060Z,7.2
2016-05-14T22:12:21.031Z,7.13
2016-05-14T22:13:21.019Z,7.13
2016-05-14T22:14:21.005Z,7.08
2016-05-14T22:15:21.008Z,7.01
2016-05-14T22:16:20.964Z,6.97
2016-05-14T22:17:20.951Z,6.99
2016-05-14T22:18:20.954Z,7.01
2016-05-14T22:19:20.924Z,6.95
2016-05-14T22:20:20.912Z,6.97
2016-05-14T22:21:20.728Z,7.04
2016-05-14T22:22:20.871Z,6.99
2016-05-14T22:23:20.842Z,6.95
2016-05-14T22:24:20.673Z,6.91
2016-05-14T22:25:20.660Z,6.89
2016-05-14T22:26:20.804Z,6.99
2016-05-14T22:27:20.791Z,7.01
2016-05-14T22:28:20.762Z,6.98
2016-05-14T22:29:20.734Z,6.98
2016-05-14T22:30:20.720Z,6.9
2016-05-14T22:31:20.707Z,6.91
2016-05-14T22:32:20.710Z,6.97
2016-05-14T22:33:20.739Z,6.91
2016-05-14T22:34:20.769Z,6.95
2016-05-14T22:35:20.628Z,6.86
2016-05-14T22:36:20.642Z,6.9
2016-05-14T22:37:20.819Z,6.89
2016-05-14T22:38:20.664Z,6.9
2016-05-14T22:39:20.668Z,6.79
2016-05-14T22:40:20.826Z,6.8
2016-05-14T22:41:20.813Z,6.69
2016-05-14T22:42:20.796Z,6.73
2016-05-14T22:43:20.804Z,6.71
2016-05-14T22:44:20.781Z,6.62
2016-05-14T22:45:21.382Z,6.63
2016-05-14T22:46:20.750Z,6.59
2016-05-14T22:47:20.742Z,6.65
2016-05-14T22:48:20.715Z,6.58
2016-05-14T22:49:20.782Z,6.53
2016-05-14T22:50:20.693Z,6.47
2016-05-14T22:51:20.682Z,6.54
2016-05-14T22:52:20.655Z,6.51
2016-05-14T22:53:20.659Z,6.44
2016-05-14T22:54:20.631Z,6.4
2016-05-14T22:55:20.446Z,6.3
2016-05-14T22:56:20.449Z,6.5
2016-05-14T22:57:20.578Z,6.43
2016-05-14T22:58:20.565Z,6.38
2016-05-14T22:59:20.554Z,6.3
2016-05-14T23:00:20.525Z,6.33
2016-05-14T23:01:20.513Z,6.47
2016-05-14T23:02:20.484Z,6.48
2016-05-14T23:03:20.315Z,6.47
2016-05-14T23:04:20.318Z,6.47
2016-05-14T23:05:20.445Z,6.44
2016-05-14T23:06:20.417Z,6.47
2016-05-14T23:07:20.247Z,6.35
2016-05-14T23:08:20.390Z,6.36
2016-05-14T23:09:20.394Z,6.43
2016-05-14T23:10:20.365Z,6.38
2016-05-14T23:11:20.337Z,6.32
2016-05-14T23:12:20.323Z,6.3
2016-05-14T23:13:20.311Z,6.36
2016-05-14T23:14:20.282Z,6.29
2016-05-14T23:15:20.253Z,6.29
2016-05-14T23:16:20.240Z,6.3
2016-05-14T23:17:20.228Z,6.3
2016-05-14T23:18:20.214Z,6.36
2016-05-14T23:19:21.061Z,6.35
2016-05-14T23:20:20.033Z,6.3
2016-05-14T23:21:20.160Z,6.3
2016-05-14T23:22:20.147Z,6.33
2016-05-14T23:23:20.119Z,6.36
2016-05-14T23:24:19.934Z,6.33
2016-05-14T23:25:20.077Z,6.25
2016-05-14T23:26:20.080Z,6.26
2016-05-14T23:27:20.035Z,6.32
2016-05-14T23:28:19.866Z,6.19
2016-05-14T23:29:20.057Z,6.26
2016-05-14T23:30:19.982Z,6.22
2016-05-14T23:31:19.969Z,6.22
2016-05-14T23:32:19.971Z,6.21
2016-05-14T23:33:19.942Z,6.16
2016-05-14T23:34:20.038Z,6.25
2016-05-14T23:35:19.898Z,6.14
2016-05-14T23:36:19.604Z,6.16
2016-05-14T23:37:19.888Z,6.1
2016-05-14T23:38:19.844Z,6.09
2016-05-14T23:39:19.831Z,6.11
2016-05-14T23:40:19.662Z,6.07
2016-05-14T23:41:19.633Z,6.13
2016-05-14T23:42:19.776Z,6.1
2016-05-14T23:43:19.764Z,6.09
2016-05-14T23:44:19.438Z,6.1
2016-05-14T23:45:19.723Z,6.1
2016-05-14T23:46:19.709Z,6.11
2016-05-14T23:47:19.525Z,6.11
2016-05-14T23:48:19.511Z,6.14
2016-05-14T23:49:19.656Z,6.16
2016-05-14T23:50:19.641Z,6.21
2016-05-14T23:51:19.614Z,6.19
2016-05-14T23:52:19.600Z,6.19
2016-05-14T23:53:19.587Z,6.29
2016-05-14T23:54:19.403Z,6.29
2016-05-14T23:55:19.546Z,6.26
2016-05-14T23:56:19.533Z,6.29
2016-05-14T23:57:19.505Z,6.18
2016-05-14T23:58:19.350Z,6.26
2016-05-14T23:59:19.494Z,6.28
